sensor_id;sensor_type;location;lat;lon;timestamp;P1;durP1;ratioP1;P2;durP2;ratioP2
20814;SDS011;10568;48.176;16.316;2022-10-16T00:02:22;17.53;;;13.13;;
20814;SDS011;10568;48.176;16.316;2022-10-16T00:04:47;16.70;;;12.83;;
20814;SDS011;10568;48.176;16.316;2022-10-16T00:07:13;18.60;;;12.83;;
20814;SDS011;10568;48.176;16.316;2022-10-16T00:09:39;14.23;;;11.47;;
20814;SDS011;10568;48.176;16.316;2022-10-16T00:12:04;18.70;;;13.60;;
20814;SDS011;10568;48.176;16.316;2022-10-16T00:14:31;18.03;;;13.47;;
20814;SDS011;10568;48.176;16.316;2022-10-16T00:16:57;14.93;;;12.43;;
20814;SDS011;10568;48.176;16.316;2022-10-16T00:19:23;19.47;;;14.50;;
20814;SDS011;10568;48.176;16.316;2022-10-16T00:21:48;16.50;;;12.87;;
20814;SDS011;10568;48.176;16.316;2022-10-16T00:24:14;19.87;;;13.93;;
20814;SDS011;10568;48.176;16.316;2022-10-16T00:26:40;19.37;;;14.43;;
20814;SDS011;10568;48.176;16.316;2022-10-16T00:29:06;17.53;;;12.97;;
20814;SDS011;10568;48.176;16.316;2022-10-16T00:31:32;16.63;;;12.53;;
20814;SDS011;10568;48.176;16.316;2022-10-16T00:33:58;18.50;;;13.27;;
20814;SDS011;10568;48.176;16.316;2022-10-16T00:36:25;18.67;;;13.80;;
20814;SDS011;10568;48.176;16.316;2022-10-16T00:38:52;18.93;;;13.23;;
20814;SDS011;10568;48.176;16.316;2022-10-16T00:41:19;16.63;;;12.23;;
20814;SDS011;10568;48.176;16.316;2022-10-16T00:43:50;18.90;;;13.37;;
20814;SDS011;10568;48.176;16.316;2022-10-16T00:48:56;21.70;;;14.93;;
20814;SDS011;10568;48.176;16.316;2022-10-16T00:51:35;21.17;;;14.77;;
20814;SDS011;10568;48.176;16.316;2022-10-16T00:54:04;20.00;;;13.97;;
20814;SDS011;10568;48.176;16.316;2022-10-16T00:56:35;18.70;;;14.17;;
20814;SDS011;10568;48.176;16.316;2022-10-16T00:59:04;18.97;;;12.87;;
20814;SDS011;10568;48.176;16.316;2022-10-16T01:01:37;19.43;;;14.10;;
20814;SDS011;10568;48.176;16.316;2022-10-16T01:04:03;23.77;;;15.50;;
20814;SDS011;10568;48.176;16.316;2022-10-16T01:06:37;20.67;;;13.80;;
20814;SDS011;10568;48.176;16.316;2022-10-16T01:12:04;16.93;;;12.50;;
20814;SDS011;10568;48.176;16.316;2022-10-16T01:14:43;21.20;;;14.23;;
20814;SDS011;10568;48.176;16.316;2022-10-16T01:17:28;20.77;;;14.30;;
20814;SDS011;10568;48.176;16.316;2022-10-16T01:20:20;20.47;;;14.70;;
20814;SDS011;10568;48.176;16.316;2022-10-16T01:28:43;18.87;;;12.47;;
20814;SDS011;10568;48.176;16.316;2022-10-16T01:31:31;12.77;;;9.70;;
20814;SDS011;10568;48.176;16.316;2022-10-16T01:34:02;18.53;;;12.87;;
20814;SDS011;10568;48.176;16.316;2022-10-16T01:36:39;18.13;;;13.60;;
20814;SDS011;10568;48.176;16.316;2022-10-16T01:39:09;20.00;;;13.30;;
20814;SDS011;10568;48.176;16.316;2022-10-16T01:41:41;18.97;;;13.10;;
20814;SDS011;10568;48.176;16.316;2022-10-16T01:44:19;18.53;;;12.97;;
20814;SDS011;10568;48.176;16.316;2022-10-16T01:46:49;17.43;;;13.17;;
20814;SDS011;10568;48.176;16.316;2022-10-16T01:49:17;19.70;;;13.33;;
20814;SDS011;10568;48.176;16.316;2022-10-16T01:51:46;17.03;;;13.30;;
20814;SDS011;10568;48.176;16.316;2022-10-16T01:54:15;16.67;;;11.23;;
20814;SDS011;10568;48.176;16.316;2022-10-16T01:56:44;14.37;;;10.67;;
20814;SDS011;10568;48.176;16.316;2022-10-16T01:59:15;21.80;;;14.27;;
20814;SDS011;10568;48.176;16.316;2022-10-16T02:01:45;19.93;;;13.97;;
20814;SDS011;10568;48.176;16.316;2022-10-16T02:04:15;19.57;;;13.40;;
20814;SDS011;10568;48.176;16.316;2022-10-16T02:06:42;19.13;;;13.83;;
20814;SDS011;10568;48.176;16.316;2022-10-16T02:09:08;18.60;;;13.97;;
20814;SDS011;10568;48.176;16.316;2022-10-16T02:11:34;21.17;;;13.50;;
20814;SDS011;10568;48.176;16.316;2022-10-16T02:14:01;19.63;;;13.23;;
20814;SDS011;10568;48.176;16.316;2022-10-16T02:16:35;20.07;;;14.60;;
20814;SDS011;10568;48.176;16.316;2022-10-16T02:19:03;21.10;;;14.20;;
20814;SDS011;10568;48.176;16.316;2022-10-16T02:21:32;17.73;;;12.00;;
20814;SDS011;10568;48.176;16.316;2022-10-16T02:24:20;19.00;;;14.47;;
20814;SDS011;10568;48.176;16.316;2022-10-16T02:27:09;19.00;;;13.57;;
20814;SDS011;10568;48.176;16.316;2022-10-16T02:29:43;16.20;;;11.73;;
20814;SDS011;10568;48.176;16.316;2022-10-16T02:32:15;21.03;;;13.40;;
20814;SDS011;10568;48.176;16.316;2022-10-16T02:34:45;18.23;;;13.87;;
20814;SDS011;10568;48.176;16.316;2022-10-16T02:37:12;18.47;;;12.80;;
20814;SDS011;10568;48.176;16.316;2022-10-16T02:39:38;18.37;;;12.83;;
20814;SDS011;10568;48.176;16.316;2022-10-16T02:42:09;21.73;;;14.17;;
20814;SDS011;10568;48.176;16.316;2022-10-16T02:44:38;18.77;;;14.00;;
20814;SDS011;10568;48.176;16.316;2022-10-16T02:47:04;21.43;;;13.70;;
20814;SDS011;10568;48.176;16.316;2022-10-16T02:49:30;17.33;;;12.30;;
20814;SDS011;10568;48.176;16.316;2022-10-16T02:51:55;20.50;;;12.83;;
20814;SDS011;10568;48.176;16.316;2022-10-16T02:54:21;15.90;;;11.60;;
20814;SDS011;10568;48.176;16.316;2022-10-16T02:56:47;18.63;;;12.77;;
20814;SDS011;10568;48.176;16.316;2022-10-16T02:59:13;19.10;;;13.93;;
20814;SDS011;10568;48.176;16.316;2022-10-16T03:01:38;19.40;;;13.47;;
20814;SDS011;10568;48.176;16.316;2022-10-16T03:04:04;14.67;;;10.20;;
20814;SDS011;10568;48.176;16.316;2022-10-16T03:06:30;19.70;;;12.70;;
20814;SDS011;10568;48.176;16.316;2022-10-16T03:08:55;17.90;;;12.47;;
20814;SDS011;10568;48.176;16.316;2022-10-16T03:11:21;20.23;;;13.20;;
20814;SDS011;10568;48.176;16.316;2022-10-16T03:13:47;16.40;;;11.77;;
20814;SDS011;10568;48.176;16.316;2022-10-16T03:16:13;12.20;;;9.20;;
20814;SDS011;10568;48.176;16.316;2022-10-16T03:18:38;19.40;;;13.00;;
20814;SDS011;10568;48.176;16.316;2022-10-16T03:21:04;16.33;;;12.13;;
20814;SDS011;10568;48.176;16.316;2022-10-16T03:23:30;15.50;;;12.07;;
20814;SDS011;10568;48.176;16.316;2022-10-16T03:25:55;17.23;;;12.20;;
20814;SDS011;10568;48.176;16.316;2022-10-16T03:28:21;19.23;;;12.00;;
20814;SDS011;10568;48.176;16.316;2022-10-16T03:30:47;16.30;;;11.07;;
20814;SDS011;10568;48.176;16.316;2022-10-16T03:33:12;11.37;;;9.00;;
20814;SDS011;10568;48.176;16.316;2022-10-16T03:35:38;20.03;;;12.87;;
20814;SDS011;10568;48.176;16.316;2022-10-16T03:38:04;15.70;;;11.10;;
20814;SDS011;10568;48.176;16.316;2022-10-16T03:40:29;19.00;;;12.73;;
20814;SDS011;10568;48.176;16.316;2022-10-16T03:42:57;16.40;;;11.80;;
20814;SDS011;10568;48.176;16.316;2022-10-16T03:45:23;18.10;;;11.67;;
20814;SDS011;10568;48.176;16.316;2022-10-16T03:50:34;16.30;;;11.37;;
20814;SDS011;10568;48.176;16.316;2022-10-16T03:53:00;14.73;;;10.50;;
20814;SDS011;10568;48.176;16.316;2022-10-16T03:55:26;13.23;;;9.93;;
20814;SDS011;10568;48.176;16.316;2022-10-16T03:57:51;14.63;;;11.07;;
20814;SDS011;10568;48.176;16.316;2022-10-16T04:00:17;12.83;;;9.67;;
20814;SDS011;10568;48.176;16.316;2022-10-16T04:02:43;13.63;;;9.93;;
20814;SDS011;10568;48.176;16.316;2022-10-16T04:05:09;14.10;;;9.23;;
20814;SDS011;10568;48.176;16.316;2022-10-16T04:07:34;15.13;;;10.23;;
20814;SDS011;10568;48.176;16.316;2022-10-16T04:10:00;16.63;;;11.00;;
20814;SDS011;10568;48.176;16.316;2022-10-16T04:12:26;15.23;;;10.33;;
20814;SDS011;10568;48.176;16.316;2022-10-16T04:14:52;15.10;;;10.63;;
20814;SDS011;10568;48.176;16.316;2022-10-16T04:17:18;13.47;;;9.70;;
20814;SDS011;10568;48.176;16.316;2022-10-16T04:19:43;16.30;;;10.97;;
20814;SDS011;10568;48.176;16.316;2022-10-16T04:22:09;14.40;;;9.40;;
20814;SDS011;10568;48.176;16.316;2022-10-16T04:24:35;16.07;;;10.73;;
20814;SDS011;10568;48.176;16.316;2022-10-16T04:27:01;14.63;;;10.17;;
20814;SDS011;10568;48.176;16.316;2022-10-16T04:29:26;13.97;;;10.40;;
20814;SDS011;10568;48.176;16.316;2022-10-16T04:31:52;12.63;;;9.27;;
20814;SDS011;10568;48.176;16.316;2022-10-16T04:34:17;9.97;;;7.70;;
20814;SDS011;10568;48.176;16.316;2022-10-16T04:36:43;12.33;;;9.13;;
20814;SDS011;10568;48.176;16.316;2022-10-16T04:39:11;12.13;;;9.10;;
20814;SDS011;10568;48.176;16.316;2022-10-16T04:41:37;10.60;;;8.70;;
20814;SDS011;10568;48.176;16.316;2022-10-16T04:44:02;10.77;;;8.47;;
20814;SDS011;10568;48.176;16.316;2022-10-16T04:46:28;9.57;;;8.07;;
20814;SDS011;10568;48.176;16.316;2022-10-16T04:48:54;10.70;;;8.77;;
20814;SDS011;10568;48.176;16.316;2022-10-16T04:51:20;11.63;;;8.73;;
20814;SDS011;10568;48.176;16.316;2022-10-16T04:53:45;14.03;;;9.50;;
20814;SDS011;10568;48.176;16.316;2022-10-16T04:56:11;10.87;;;8.93;;
20814;SDS011;10568;48.176;16.316;2022-10-16T04:58:37;10.07;;;7.90;;
20814;SDS011;10568;48.176;16.316;2022-10-16T05:01:02;10.43;;;7.93;;
20814;SDS011;10568;48.176;16.316;2022-10-16T05:03:28;12.17;;;9.13;;
20814;SDS011;10568;48.176;16.316;2022-10-16T05:05:54;11.30;;;9.43;;
20814;SDS011;10568;48.176;16.316;2022-10-16T05:08:19;11.87;;;9.07;;
20814;SDS011;10568;48.176;16.316;2022-10-16T05:10:45;10.00;;;7.90;;
20814;SDS011;10568;48.176;16.316;2022-10-16T05:13:11;11.53;;;8.73;;
20814;SDS011;10568;48.176;16.316;2022-10-16T05:15:37;13.00;;;9.57;;
20814;SDS011;10568;48.176;16.316;2022-10-16T05:18:03;10.83;;;8.30;;
20814;SDS011;10568;48.176;16.316;2022-10-16T05:20:29;11.30;;;8.50;;
20814;SDS011;10568;48.176;16.316;2022-10-16T05:22:54;11.80;;;8.77;;
20814;SDS011;10568;48.176;16.316;2022-10-16T05:25:20;11.93;;;9.03;;
20814;SDS011;10568;48.176;16.316;2022-10-16T05:27:49;10.87;;;8.47;;
20814;SDS011;10568;48.176;16.316;2022-10-16T05:30:15;11.67;;;8.60;;
20814;SDS011;10568;48.176;16.316;2022-10-16T05:32:45;12.00;;;8.93;;
20814;SDS011;10568;48.176;16.316;2022-10-16T05:35:12;13.17;;;9.17;;
20814;SDS011;10568;48.176;16.316;2022-10-16T05:37:38;12.57;;;8.90;;
20814;SDS011;10568;48.176;16.316;2022-10-16T05:40:04;10.40;;;8.00;;
20814;SDS011;10568;48.176;16.316;2022-10-16T05:42:30;13.23;;;9.27;;
20814;SDS011;10568;48.176;16.316;2022-10-16T05:44:55;12.67;;;9.33;;
20814;SDS011;10568;48.176;16.316;2022-10-16T05:47:21;11.27;;;9.07;;
20814;SDS011;10568;48.176;16.316;2022-10-16T05:49:47;13.60;;;9.97;;
20814;SDS011;10568;48.176;16.316;2022-10-16T05:52:13;13.20;;;9.83;;
20814;SDS011;10568;48.176;16.316;2022-10-16T05:54:38;13.03;;;9.30;;
20814;SDS011;10568;48.176;16.316;2022-10-16T05:57:04;14.00;;;9.50;;
20814;SDS011;10568;48.176;16.316;2022-10-16T05:59:31;13.93;;;10.10;;
20814;SDS011;10568;48.176;16.316;2022-10-16T06:01:57;12.43;;;8.87;;
20814;SDS011;10568;48.176;16.316;2022-10-16T06:04:22;13.67;;;9.50;;
20814;SDS011;10568;48.176;16.316;2022-10-16T06:06:49;13.70;;;8.83;;
20814;SDS011;10568;48.176;16.316;2022-10-16T06:09:17;13.77;;;8.13;;
20814;SDS011;10568;48.176;16.316;2022-10-16T06:11:43;14.27;;;9.60;;
20814;SDS011;10568;48.176;16.316;2022-10-16T06:14:08;12.13;;;8.80;;
20814;SDS011;10568;48.176;16.316;2022-10-16T06:16:35;15.17;;;10.23;;
20814;SDS011;10568;48.176;16.316;2022-10-16T06:19:02;15.40;;;9.63;;
20814;SDS011;10568;48.176;16.316;2022-10-16T06:21:31;12.60;;;9.80;;
20814;SDS011;10568;48.176;16.316;2022-10-16T06:23:57;15.83;;;10.50;;
20814;SDS011;10568;48.176;16.316;2022-10-16T06:26:25;15.10;;;10.87;;
20814;SDS011;10568;48.176;16.316;2022-10-16T06:28:56;14.40;;;10.23;;
20814;SDS011;10568;48.176;16.316;2022-10-16T06:31:23;14.93;;;10.67;;
20814;SDS011;10568;48.176;16.316;2022-10-16T06:33:54;16.63;;;11.23;;
20814;SDS011;10568;48.176;16.316;2022-10-16T06:36:31;15.90;;;10.63;;
20814;SDS011;10568;48.176;16.316;2022-10-16T06:38:57;17.23;;;11.27;;
20814;SDS011;10568;48.176;16.316;2022-10-16T06:41:23;17.77;;;12.23;;
20814;SDS011;10568;48.176;16.316;2022-10-16T06:43:49;15.90;;;11.33;;
20814;SDS011;10568;48.176;16.316;2022-10-16T06:46:18;17.17;;;12.13;;
20814;SDS011;10568;48.176;16.316;2022-10-16T06:48:46;16.93;;;11.57;;
20814;SDS011;10568;48.176;16.316;2022-10-16T06:51:13;16.77;;;12.00;;
20814;SDS011;10568;48.176;16.316;2022-10-16T06:53:45;18.30;;;12.20;;
20814;SDS011;10568;48.176;16.316;2022-10-16T06:56:15;15.97;;;12.10;;
20814;SDS011;10568;48.176;16.316;2022-10-16T06:58:43;18.70;;;12.80;;
20814;SDS011;10568;48.176;16.316;2022-10-16T07:01:10;16.77;;;12.00;;
20814;SDS011;10568;48.176;16.316;2022-10-16T07:03:36;18.63;;;13.03;;
20814;SDS011;10568;48.176;16.316;2022-10-16T07:06:04;18.53;;;12.50;;
20814;SDS011;10568;48.176;16.316;2022-10-16T07:08:32;17.70;;;12.20;;
20814;SDS011;10568;48.176;16.316;2022-10-16T07:11:02;15.57;;;11.87;;
20814;SDS011;10568;48.176;16.316;2022-10-16T07:13:32;20.33;;;13.13;;
20814;SDS011;10568;48.176;16.316;2022-10-16T07:16:06;19.17;;;13.50;;
20814;SDS011;10568;48.176;16.316;2022-10-16T07:18:56;17.87;;;12.37;;
20814;SDS011;10568;48.176;16.316;2022-10-16T07:21:24;19.23;;;12.80;;
20814;SDS011;10568;48.176;16.316;2022-10-16T07:23:54;21.10;;;13.90;;
20814;SDS011;10568;48.176;16.316;2022-10-16T07:26:22;19.80;;;13.47;;
20814;SDS011;10568;48.176;16.316;2022-10-16T07:28:49;17.67;;;13.37;;
20814;SDS011;10568;48.176;16.316;2022-10-16T07:31:16;17.43;;;12.77;;
20814;SDS011;10568;48.176;16.316;2022-10-16T07:33:44;19.27;;;13.87;;
20814;SDS011;10568;48.176;16.316;2022-10-16T07:36:13;18.00;;;13.37;;
20814;SDS011;10568;48.176;16.316;2022-10-16T07:38:40;19.60;;;13.57;;
20814;SDS011;10568;48.176;16.316;2022-10-16T07:41:09;17.50;;;12.57;;
20814;SDS011;10568;48.176;16.316;2022-10-16T07:43:52;20.70;;;14.23;;
20814;SDS011;10568;48.176;16.316;2022-10-16T07:46:20;19.37;;;13.33;;
20814;SDS011;10568;48.176;16.316;2022-10-16T07:48:46;20.17;;;14.13;;
20814;SDS011;10568;48.176;16.316;2022-10-16T07:51:16;20.23;;;14.23;;
20814;SDS011;10568;48.176;16.316;2022-10-16T07:53:44;21.40;;;14.03;;
20814;SDS011;10568;48.176;16.316;2022-10-16T07:56:11;20.97;;;14.50;;
20814;SDS011;10568;48.176;16.316;2022-10-16T07:58:37;22.47;;;14.70;;
20814;SDS011;10568;48.176;16.316;2022-10-16T08:01:04;23.17;;;15.30;;
20814;SDS011;10568;48.176;16.316;2022-10-16T08:03:31;20.07;;;13.87;;
20814;SDS011;10568;48.176;16.316;2022-10-16T08:05:58;22.03;;;15.13;;
20814;SDS011;10568;48.176;16.316;2022-10-16T08:08:25;22.97;;;15.20;;
20814;SDS011;10568;48.176;16.316;2022-10-16T08:10:52;21.50;;;14.27;;
20814;SDS011;10568;48.176;16.316;2022-10-16T08:13:18;22.17;;;14.57;;
20814;SDS011;10568;48.176;16.316;2022-10-16T08:15:59;24.77;;;16.10;;
20814;SDS011;10568;48.176;16.316;2022-10-16T08:18:25;21.57;;;13.80;;
20814;SDS011;10568;48.176;16.316;2022-10-16T08:20:54;24.10;;;15.80;;
20814;SDS011;10568;48.176;16.316;2022-10-16T08:23:22;25.10;;;16.13;;
20814;SDS011;10568;48.176;16.316;2022-10-16T08:25:48;23.90;;;15.73;;
20814;SDS011;10568;48.176;16.316;2022-10-16T08:28:14;23.47;;;15.77;;
20814;SDS011;10568;48.176;16.316;2022-10-16T08:30:41;22.57;;;14.60;;
20814;SDS011;10568;48.176;16.316;2022-10-16T08:33:07;22.87;;;15.07;;
20814;SDS011;10568;48.176;16.316;2022-10-16T08:35:33;23.87;;;16.93;;
20814;SDS011;10568;48.176;16.316;2022-10-16T08:47:39;25.97;;;16.40;;
20814;SDS011;10568;48.176;16.316;2022-10-16T08:50:24;25.83;;;16.50;;
20814;SDS011;10568;48.176;16.316;2022-10-16T08:52:53;27.00;;;17.00;;
20814;SDS011;10568;48.176;16.316;2022-10-16T08:58:26;28.37;;;17.50;;
20814;SDS011;10568;48.176;16.316;2022-10-16T09:00:54;27.93;;;16.67;;
20814;SDS011;10568;48.176;16.316;2022-10-16T09:12:04;28.70;;;18.30;;
20814;SDS011;10568;48.176;16.316;2022-10-16T09:14:51;28.07;;;16.57;;
20814;SDS011;10568;48.176;16.316;2022-10-16T09:25:48;25.80;;;17.30;;
20814;SDS011;10568;48.176;16.316;2022-10-16T09:28:16;32.53;;;19.03;;
20814;SDS011;10568;48.176;16.316;2022-10-16T09:30:43;30.50;;;18.37;;
20814;SDS011;10568;48.176;16.316;2022-10-16T09:33:10;33.53;;;19.50;;
20814;SDS011;10568;48.176;16.316;2022-10-16T09:35:39;31.93;;;19.33;;
20814;SDS011;10568;48.176;16.316;2022-10-16T09:38:09;31.23;;;18.43;;
20814;SDS011;10568;48.176;16.316;2022-10-16T09:40:53;26.50;;;17.07;;
20814;SDS011;10568;48.176;16.316;2022-10-16T09:46:03;27.20;;;16.63;;
20814;SDS011;10568;48.176;16.316;2022-10-16T09:48:35;27.50;;;18.70;;
20814;SDS011;10568;48.176;16.316;2022-10-16T09:51:04;31.83;;;18.70;;
20814;SDS011;10568;48.176;16.316;2022-10-16T09:59:01;26.73;;;16.70;;
20814;SDS011;10568;48.176;16.316;2022-10-16T10:01:37;26.50;;;17.00;;
20814;SDS011;10568;48.176;16.316;2022-10-16T10:04:06;26.23;;;17.13;;
20814;SDS011;10568;48.176;16.316;2022-10-16T10:06:34;25.37;;;17.10;;
20814;SDS011;10568;48.176;16.316;2022-10-16T10:09:15;21.57;;;15.37;;
20814;SDS011;10568;48.176;16.316;2022-10-16T10:11:44;27.00;;;16.77;;
20814;SDS011;10568;48.176;16.316;2022-10-16T10:14:20;23.17;;;15.60;;
20814;SDS011;10568;48.176;16.316;2022-10-16T10:17:01;22.23;;;14.93;;
20814;SDS011;10568;48.176;16.316;2022-10-16T10:22:19;26.80;;;16.53;;
20814;SDS011;10568;48.176;16.316;2022-10-16T10:35:56;24.47;;;16.93;;
20814;SDS011;10568;48.176;16.316;2022-10-16T10:38:57;25.17;;;16.50;;
20814;SDS011;10568;48.176;16.316;2022-10-16T10:58:12;24.13;;;15.30;;
20814;SDS011;10568;48.176;16.316;2022-10-16T11:00:51;28.83;;;17.20;;
20814;SDS011;10568;48.176;16.316;2022-10-16T11:03:42;24.67;;;16.37;;
20814;SDS011;10568;48.176;16.316;2022-10-16T11:09:08;26.47;;;17.00;;
20814;SDS011;10568;48.176;16.316;2022-10-16T11:17:18;29.00;;;16.60;;
20814;SDS011;10568;48.176;16.316;2022-10-16T11:20:52;26.10;;;16.90;;
20814;SDS011;10568;48.176;16.316;2022-10-16T11:23:00;27.97;;;18.27;;
20814;SDS011;10568;48.176;16.316;2022-10-16T11:25:30;27.40;;;18.53;;
20814;SDS011;10568;48.176;16.316;2022-10-16T11:41:55;33.20;;;19.03;;
20814;SDS011;10568;48.176;16.316;2022-10-16T11:55:23;31.53;;;19.00;;
20814;SDS011;10568;48.176;16.316;2022-10-16T11:58:01;31.07;;;19.57;;
20814;SDS011;10568;48.176;16.316;2022-10-16T12:03:54;30.50;;;19.63;;
20814;SDS011;10568;48.176;16.316;2022-10-16T12:09:28;29.03;;;19.20;;
20814;SDS011;10568;48.176;16.316;2022-10-16T12:11:57;31.93;;;20.37;;
20814;SDS011;10568;48.176;16.316;2022-10-16T12:19:26;31.33;;;19.87;;
20814;SDS011;10568;48.176;16.316;2022-10-16T12:21:56;32.50;;;19.77;;
20814;SDS011;10568;48.176;16.316;2022-10-16T12:24:29;29.23;;;18.80;;
20814;SDS011;10568;48.176;16.316;2022-10-16T12:27:20;31.30;;;20.17;;
20814;SDS011;10568;48.176;16.316;2022-10-16T12:30:02;28.83;;;19.53;;
20814;SDS011;10568;48.176;16.316;2022-10-16T12:32:34;29.73;;;20.03;;
20814;SDS011;10568;48.176;16.316;2022-10-16T12:35:03;33.33;;;21.03;;
20814;SDS011;10568;48.176;16.316;2022-10-16T12:37:33;32.57;;;21.37;;
20814;SDS011;10568;48.176;16.316;2022-10-16T12:40:10;31.53;;;21.40;;
20814;SDS011;10568;48.176;16.316;2022-10-16T12:42:57;29.23;;;18.70;;
20814;SDS011;10568;48.176;16.316;2022-10-16T12:47:52;34.23;;;22.20;;
20814;SDS011;10568;48.176;16.316;2022-10-16T12:50:27;29.20;;;20.70;;
20814;SDS011;10568;48.176;16.316;2022-10-16T12:53:01;32.73;;;21.47;;
20814;SDS011;10568;48.176;16.316;2022-10-16T12:55:32;30.27;;;20.63;;
20814;SDS011;10568;48.176;16.316;2022-10-16T13:00:58;32.13;;;20.03;;
20814;SDS011;10568;48.176;16.316;2022-10-16T13:03:38;28.03;;;19.27;;
20814;SDS011;10568;48.176;16.316;2022-10-16T13:18:20;34.20;;;21.20;;
20814;SDS011;10568;48.176;16.316;2022-10-16T13:24:13;31.40;;;21.17;;
20814;SDS011;10568;48.176;16.316;2022-10-16T13:27:01;29.90;;;21.03;;
20814;SDS011;10568;48.176;16.316;2022-10-16T13:29:32;28.00;;;18.57;;
20814;SDS011;10568;48.176;16.316;2022-10-16T13:31:59;34.27;;;22.57;;
20814;SDS011;10568;48.176;16.316;2022-10-16T13:34:33;27.63;;;18.87;;
20814;SDS011;10568;48.176;16.316;2022-10-16T13:37:17;34.87;;;21.77;;
20814;SDS011;10568;48.176;16.316;2022-10-16T13:39:45;32.13;;;21.57;;
20814;SDS011;10568;48.176;16.316;2022-10-16T13:42:24;32.90;;;21.97;;
20814;SDS011;10568;48.176;16.316;2022-10-16T13:44:53;32.17;;;20.83;;
20814;SDS011;10568;48.176;16.316;2022-10-16T13:47:25;22.30;;;15.97;;
20814;SDS011;10568;48.176;16.316;2022-10-16T13:50:03;34.07;;;22.70;;
20814;SDS011;10568;48.176;16.316;2022-10-16T13:52:47;28.50;;;18.77;;
20814;SDS011;10568;48.176;16.316;2022-10-16T13:55:15;27.77;;;19.90;;
20814;SDS011;10568;48.176;16.316;2022-10-16T13:57:43;28.83;;;20.63;;
20814;SDS011;10568;48.176;16.316;2022-10-16T14:00:19;28.90;;;20.60;;
20814;SDS011;10568;48.176;16.316;2022-10-16T14:02:52;32.80;;;21.67;;
20814;SDS011;10568;48.176;16.316;2022-10-16T14:05:26;30.10;;;21.40;;
20814;SDS011;10568;48.176;16.316;2022-10-16T14:07:52;30.23;;;21.53;;
20814;SDS011;10568;48.176;16.316;2022-10-16T14:10:25;31.83;;;21.30;;
20814;SDS011;10568;48.176;16.316;2022-10-16T14:13:02;31.67;;;21.03;;
20814;SDS011;10568;48.176;16.316;2022-10-16T14:15:32;28.40;;;20.73;;
20814;SDS011;10568;48.176;16.316;2022-10-16T14:18:00;27.97;;;19.53;;
20814;SDS011;10568;48.176;16.316;2022-10-16T14:20:30;33.20;;;22.43;;
20814;SDS011;10568;48.176;16.316;2022-10-16T14:23:02;28.03;;;19.20;;
20814;SDS011;10568;48.176;16.316;2022-10-16T14:25:30;32.70;;;21.73;;
20814;SDS011;10568;48.176;16.316;2022-10-16T14:28:01;30.00;;;20.13;;
20814;SDS011;10568;48.176;16.316;2022-10-16T14:30:57;33.97;;;21.10;;
20814;SDS011;10568;48.176;16.316;2022-10-16T14:33:33;30.67;;;20.80;;
20814;SDS011;10568;48.176;16.316;2022-10-16T14:36:06;31.67;;;20.70;;
20814;SDS011;10568;48.176;16.316;2022-10-16T14:38:39;27.17;;;17.90;;
20814;SDS011;10568;48.176;16.316;2022-10-16T14:41:07;29.77;;;20.33;;
20814;SDS011;10568;48.176;16.316;2022-10-16T14:43:35;27.37;;;17.23;;
20814;SDS011;10568;48.176;16.316;2022-10-16T14:46:04;28.43;;;20.00;;
20814;SDS011;10568;48.176;16.316;2022-10-16T14:48:36;33.90;;;20.23;;
20814;SDS011;10568;48.176;16.316;2022-10-16T14:51:08;30.50;;;20.73;;
20814;SDS011;10568;48.176;16.316;2022-10-16T14:53:40;29.43;;;19.67;;
20814;SDS011;10568;48.176;16.316;2022-10-16T14:56:09;25.87;;;18.83;;
20814;SDS011;10568;48.176;16.316;2022-10-16T14:58:39;28.17;;;18.83;;
20814;SDS011;10568;48.176;16.316;2022-10-16T15:01:06;31.53;;;21.10;;
20814;SDS011;10568;48.176;16.316;2022-10-16T15:03:36;28.80;;;18.73;;
20814;SDS011;10568;48.176;16.316;2022-10-16T15:06:02;24.73;;;15.73;;
20814;SDS011;10568;48.176;16.316;2022-10-16T15:08:29;24.33;;;18.30;;
20814;SDS011;10568;48.176;16.316;2022-10-16T15:10:54;27.73;;;19.80;;
20814;SDS011;10568;48.176;16.316;2022-10-16T15:13:20;23.90;;;17.43;;
20814;SDS011;10568;48.176;16.316;2022-10-16T15:15:46;30.47;;;20.17;;
20814;SDS011;10568;48.176;16.316;2022-10-16T15:18:14;29.57;;;20.03;;
20814;SDS011;10568;48.176;16.316;2022-10-16T15:20:45;31.77;;;20.33;;
20814;SDS011;10568;48.176;16.316;2022-10-16T15:23:17;21.77;;;15.60;;
20814;SDS011;10568;48.176;16.316;2022-10-16T15:28:12;22.23;;;16.63;;
20814;SDS011;10568;48.176;16.316;2022-10-16T15:30:39;22.87;;;15.27;;
20814;SDS011;10568;48.176;16.316;2022-10-16T15:33:10;27.77;;;19.30;;
20814;SDS011;10568;48.176;16.316;2022-10-16T15:35:41;27.30;;;17.40;;
20814;SDS011;10568;48.176;16.316;2022-10-16T15:38:11;29.63;;;19.43;;
20814;SDS011;10568;48.176;16.316;2022-10-16T15:40:39;27.53;;;17.67;;
20814;SDS011;10568;48.176;16.316;2022-10-16T15:43:05;25.00;;;17.37;;
20814;SDS011;10568;48.176;16.316;2022-10-16T15:45:31;24.90;;;16.03;;
20814;SDS011;10568;48.176;16.316;2022-10-16T15:47:57;21.63;;;14.80;;
20814;SDS011;10568;48.176;16.316;2022-10-16T15:50:23;21.77;;;14.87;;
20814;SDS011;10568;48.176;16.316;2022-10-16T15:52:49;22.00;;;14.93;;
20814;SDS011;10568;48.176;16.316;2022-10-16T15:55:16;22.47;;;15.60;;
20814;SDS011;10568;48.176;16.316;2022-10-16T15:57:43;28.97;;;18.03;;
20814;SDS011;10568;48.176;16.316;2022-10-16T16:00:15;25.00;;;16.40;;
20814;SDS011;10568;48.176;16.316;2022-10-16T16:02:43;21.27;;;14.37;;
20814;SDS011;10568;48.176;16.316;2022-10-16T16:05:14;24.00;;;14.70;;
20814;SDS011;10568;48.176;16.316;2022-10-16T16:07:40;25.07;;;17.07;;
20814;SDS011;10568;48.176;16.316;2022-10-16T16:10:07;21.17;;;15.33;;
20814;SDS011;10568;48.176;16.316;2022-10-16T16:12:34;24.20;;;15.13;;
20814;SDS011;10568;48.176;16.316;2022-10-16T16:15:02;24.37;;;15.37;;
20814;SDS011;10568;48.176;16.316;2022-10-16T16:17:30;25.27;;;15.80;;
20814;SDS011;10568;48.176;16.316;2022-10-16T16:19:56;25.27;;;15.97;;
20814;SDS011;10568;48.176;16.316;2022-10-16T16:22:22;23.40;;;14.77;;
20814;SDS011;10568;48.176;16.316;2022-10-16T16:24:48;26.23;;;16.70;;
20814;SDS011;10568;48.176;16.316;2022-10-16T16:27:15;22.10;;;14.60;;
20814;SDS011;10568;48.176;16.316;2022-10-16T16:29:41;23.43;;;15.63;;
20814;SDS011;10568;48.176;16.316;2022-10-16T16:32:07;24.80;;;15.30;;
20814;SDS011;10568;48.176;16.316;2022-10-16T16:34:33;21.17;;;13.60;;
20814;SDS011;10568;48.176;16.316;2022-10-16T16:37:00;21.53;;;13.53;;
20814;SDS011;10568;48.176;16.316;2022-10-16T16:39:26;21.90;;;14.60;;
20814;SDS011;10568;48.176;16.316;2022-10-16T16:41:52;19.70;;;13.90;;
20814;SDS011;10568;48.176;16.316;2022-10-16T16:44:20;26.07;;;15.07;;
20814;SDS011;10568;48.176;16.316;2022-10-16T16:46:46;22.70;;;14.80;;
20814;SDS011;10568;48.176;16.316;2022-10-16T16:49:12;19.70;;;13.20;;
20814;SDS011;10568;48.176;16.316;2022-10-16T16:51:39;20.43;;;14.20;;
20814;SDS011;10568;48.176;16.316;2022-10-16T16:54:06;21.93;;;14.07;;
20814;SDS011;10568;48.176;16.316;2022-10-16T16:56:32;21.27;;;14.50;;